BLOG

LUXURY FLIGHT

080-7560-1817

羽田空港本店:東京都大田区羽田空港3-3-2
第1旅客ターミナル5階
営業時間:10:00~20:00 定休日:年中無休
電話番号:080-7560-1817

セントレア店:愛知県常滑市セントレア1-1
FLIGHT OF DREAMS FLIGHT PARK
営業時間:10:00~20:00 定休日:年中無休
電話番号:080-4945-5666

lv

BLOG

ph

BLOG

2020年6月28日【セントレア店】ビビ、ビビビ!?

中部よりこんにちはーー!!!     RJGG 280300Z 34007KT 9999 FEW007 SCT120 BKN/// 25/20 Q1000 NOSIG     本日ご紹介させていただくのは、 埼玉...

2020年6月27日【羽田空港本店】梅雨空が続きますが、スカイブルーの「心」をいただきました!!!

こんちは   本日の羽田空港のMETARは… RJTT 270400Z 08003KT 9999 FEW015 OVC/// 25/24 Q1004 NOSIG RMK 1CU015 A2966       ...

2020年6月21日【羽田空港本店】梅雨時期はいろんな物が壊れるのか…?

おはようございます   本日の羽田空港のMETARは…   RJTT 210000Z 03010KT 9999 -SHRA FEW015 BKN020 BKN070 21/17 Q1012 NOSIG RMK 1CU015 5CU020 7AC07...

2020年6月12日【セントレア店】再稼働!!大変お待たせしました!

皆さま、大変ご無沙汰しております!   羽田空港本店の6/1再稼働に続きまして、 おかげさまで、セントレア店も本日6/12、再稼働させて頂きました   再稼働初日の中部のお天気は、 RJGG 120700Z 17007KT 9999 VCSH ...

2020年6月10日【羽田空港本店】夕焼けなう。

こんにちはーーーーーーー   たまたま窓際から見た夕焼けが綺麗だったので… 撮ってしまいました!!!!   羽田近郊の皆様、ただいまいい感じに夕日が見えております!!!   RJTT 100930Z 21019KT 99...

2020年6月9日【羽田空港本店】モーション、ムズいけど楽しいぜ!!

こんにちは   いつもブログを読んでくださりありがとうございます!!   こちらは先週のとあるお昼の羽田空港   RJTT 060630Z 17008KT 9999 FEW030 BKN/// 27/21 Q1005 NOSIG...

2020年6月5日【羽田空港本店】人が少しずつ戻ってきているような…

おはようございます   今朝の羽田METARは… RJTT 042300Z 18008KT 9999 FEW020 SCT040 BKN/// 25/20 Q1006 NOSIG RMK 1CU020 3SC040 A2972   &...

2020年6月2日【羽田空港本店】昨日より再稼働いたしました!!

お久しぶりでございます   羽田空港本店、おかげさまで昨日より再稼働をさせて頂いております!!   そんな羽田の現況は…   METAR RJTT 020300Z 19008KT 160V240 9999 FEW015 SCT030 ...

2020年5月31日【6月30日更新】羽田&セントレア再稼働!! ご好評すごるため両店キャンペーン開催延長いたします!!!

      ご利用者様、並びにご利用をご検討されている皆様     いつも弊社サービスに対し温かいご声援とご理解を賜り誠にありがとうございます。 この場をお借りして、心より御礼申し上げます。 &...

2020年2月21日最終日のその後…

こんばんはーーーー 本日も移転に伴う作業をひたすらとしておりました!!!   今夜の羽田周辺のMETARは…   RJTT 211100Z 16009KT 9999 SCT030 BKN/// 11/06 Q1032 NOSIG RMK 3C...

TOP